Time;durP1;ratioP1;P1;durP2;ratioP2;P2;SDS_P1;SDS_P2;PMS_P1;PMS_P2;Temp;Humidity;BMP_temperature;BMP_pressure;BME280_temperature;BME280_humidity;BME280_pressure;Samples;Min_cycle;Max_cycle;Signal;HPM_P1;HPM_P2
2021/11/16 00:00:14;;;;;;;47.50;27.80;;;;;;;6.59;75.47;101552.38;126495;1314;108790;-81
2021/11/16 00:03:40;;;;;;;54.10;29.00;;;;;;;6.60;75.29;101548.63;126784;1316;110267;-81
2021/11/16 00:06:51;;;;;;;79.70;35.00;;;;;;;6.59;75.60;101540.73;126421;1317;108042;-81
2021/11/16 00:09:56;;;;;;;48.10;24.60;;;;;;;6.56;75.45;101535.94;126636;1310;106545;-81
2021/11/16 00:13:04;;;;;;;43.60;23.60;;;;;;;6.55;75.56;101534.98;126971;1310;108863;-81
2021/11/16 00:16:09;;;;;;;44.90;25.00;;;;;;;6.57;75.58;101532.90;126771;1310;108928;-83
2021/11/16 00:19:16;;;;;;;49.40;27.50;;;;;;;6.61;75.60;101524.73;126970;1316;108995;-82
2021/11/16 00:22:21;;;;;;;43.40;25.90;;;;;;;6.62;75.38;101522.14;126921;1309;108710;-83
2021/11/16 00:25:32;;;;;;;48.10;26.50;;;;;;;6.65;75.51;101526.18;126717;1309;109107;-81
2021/11/16 00:28:38;;;;;;;44.90;26.10;;;;;;;6.66;75.32;101519.38;126919;1313;109559;-79
2021/11/16 00:31:43;;;;;;;46.80;26.40;;;;;;;6.67;75.32;101515.81;126744;1310;107530;-79
2021/11/16 00:34:49;;;;;;;49.10;27.40;;;;;;;6.65;75.51;101510.24;126621;1310;108425;-86
2021/11/16 00:37:54;;;;;;;45.30;23.70;;;;;;;6.62;75.24;101511.90;126699;1310;108943;-81
2021/11/16 00:41:00;;;;;;;42.10;23.70;;;;;;;6.60;75.44;101508.49;126945;1309;108773;-84
2021/11/16 00:44:06;;;;;;;42.30;24.40;;;;;;;6.60;75.56;101508.67;127048;1313;108876;-81
2021/11/16 00:47:12;;;;;;;41.80;25.50;;;;;;;6.63;75.44;101503.67;126925;1310;108909;-82
2021/11/16 00:50:17;;;;;;;56.60;31.80;;;;;;;6.67;75.24;101503.45;126907;1310;107088;-81
2021/11/16 00:53:24;;;;;;;47.80;28.10;;;;;;;6.69;75.54;101502.79;126918;1310;108846;-81
2021/11/16 00:56:30;;;;;;;51.20;27.50;;;;;;;6.70;75.34;101497.42;127072;1309;109637;-82
2021/11/16 00:59:36;;;;;;;48.30;27.80;;;;;;;6.71;75.39;101500.54;126582;1312;108622;-81
2021/11/16 01:02:41;;;;;;;47.90;28.10;;;;;;;6.67;75.27;101499.73;126370;1312;108809;-81
2021/11/16 01:05:47;;;;;;;44.00;24.90;;;;;;;6.64;75.33;101490.38;126536;1309;108732;-77
2021/11/16 01:08:53;;;;;;;44.80;23.60;;;;;;;6.61;75.50;101490.02;126674;1310;107901;-82
2021/11/16 01:11:58;;;;;;;48.30;26.10;;;;;;;6.62;75.33;101492.92;126480;1311;108801;-82
2021/11/16 01:15:05;;;;;;;47.50;27.20;;;;;;;6.64;75.54;101493.05;126448;1316;108796;-83
2021/11/16 01:18:11;;;;;;;44.50;26.10;;;;;;;6.67;75.42;101494.06;126905;1309;107216;-81
2021/11/16 01:21:17;;;;;;;46.70;26.50;;;;;;;6.70;75.57;101480.42;126508;1312;108673;-83
2021/11/16 01:24:22;;;;;;;45.80;26.90;;;;;;;6.68;75.36;101474.18;126491;1313;107650;-82
2021/11/16 01:27:33;;;;;;;45.80;28.00;;;;;;;6.67;75.37;101467.20;126693;1312;109697;-84
2021/11/16 01:30:41;;;;;;;44.30;24.50;;;;;;;6.65;75.55;101469.98;126892;1310;108982;-83
2021/11/16 01:33:52;;;;;;;43.20;24.20;;;;;;;6.64;75.49;101473.38;126909;1309;108688;-84
2021/11/16 01:36:58;;;;;;;48.10;26.40;;;;;;;6.66;75.72;101474.17;126940;1314;108701;-83
2021/11/16 01:40:04;;;;;;;44.80;26.50;;;;;;;6.69;75.46;101471.85;126505;1315;107714;-84
2021/11/16 01:43:10;;;;;;;49.90;27.60;;;;;;;6.71;75.50;101475.80;126501;1313;108610;-85
2021/11/16 01:46:18;;;;;;;45.10;26.30;;;;;;;6.73;75.63;101466.87;126776;1316;108521;-82
2021/11/16 01:49:23;;;;;;;56.10;26.30;;;;;;;6.76;75.26;101461.17;126485;1312;108695;-81
2021/11/16 01:52:29;;;;;;;45.50;26.10;;;;;;;6.76;75.36;101454.64;126762;1309;108813;-80
2021/11/16 01:55:34;;;;;;;42.90;24.00;;;;;;;6.72;75.66;101450.46;126818;1309;108939;-78
2021/11/16 01:58:40;;;;;;;45.20;24.50;;;;;;;6.68;75.44;101455.44;126855;1309;108884;-80
2021/11/16 02:01:45;;;;;;;48.30;25.80;;;;;;;6.69;75.43;101450.43;126822;1310;108922;-78
2021/11/16 02:04:51;;;;;;;45.60;26.60;;;;;;;6.73;75.34;101448.64;126602;1310;108765;-82
2021/11/16 02:07:56;;;;;;;43.70;25.90;;;;;;;6.76;75.43;101447.89;126421;1313;107586;-81
2021/11/16 02:11:02;;;;;;;48.30;27.00;;;;;;;6.79;75.33;101441.52;126476;1312;108712;-80
2021/11/16 02:14:10;;;;;;;48.20;27.20;;;;;;;6.79;75.25;101433.17;126526;1310;107414;-82
2021/11/16 02:17:16;;;;;;;45.70;27.00;;;;;;;6.77;75.36;101426.23;126437;1312;108997;-83
2021/11/16 02:20:21;;;;;;;44.90;26.90;;;;;;;6.75;75.23;101419.65;126366;1311;108956;-82
2021/11/16 02:23:27;;;;;;;45.60;24.80;;;;;;;6.72;75.43;101421.28;126485;1311;109262;-81
2021/11/16 02:26:33;;;;;;;44.80;22.90;;;;;;;6.69;75.44;101418.28;126778;1309;109175;-81
2021/11/16 02:29:39;;;;;;;45.90;25.00;;;;;;;6.70;75.38;101419.79;126510;1311;108881;-80
2021/11/16 02:32:47;;;;;;;46.80;26.60;;;;;;;6.73;75.51;101409.92;126422;1315;108814;-81
2021/11/16 02:35:52;;;;;;;44.50;26.20;;;;;;;6.74;75.36;101406.10;126489;1312;108664;-82
2021/11/16 02:38:59;;;;;;;47.70;26.80;;;;;;;6.77;75.26;101402.53;126688;1310;109219;-79
2021/11/16 02:42:05;;;;;;;48.40;26.50;;;;;;;6.78;75.66;101395.09;126482;1312;107559;-79
2021/11/16 02:45:12;;;;;;;47.20;26.30;;;;;;;6.75;75.36;101396.86;126400;1312;108824;-80
2021/11/16 02:48:18;;;;;;;48.90;25.60;;;;;;;6.73;75.41;101394.16;126397;1310;107291;-81
2021/11/16 02:51:23;;;;;;;49.50;25.70;;;;;;;6.72;75.35;101389.96;126552;1311;108824;-84
2021/11/16 02:54:29;;;;;;;48.50;25.90;;;;;;;6.69;75.61;101389.48;126528;1312;108914;-83
2021/11/16 02:57:35;;;;;;;48.70;26.90;;;;;;;6.71;75.54;101384.21;126477;1312;108953;-84
2021/11/16 03:00:46;;;;;;;50.00;26.90;;;;;;;6.76;75.61;101380.20;126515;1311;108722;-83
2021/11/16 03:03:51;;;;;;;48.40;26.10;;;;;;;6.77;75.37;101385.77;126787;1316;108595;-83
2021/11/16 03:06:57;;;;;;;49.70;25.90;;;;;;;6.75;75.29;101384.45;126899;1310;108900;-83
2021/11/16 03:10:04;;;;;;;49.30;26.80;;;;;;;6.75;75.65;101387.48;126977;1309;108953;-82
2021/11/16 03:13:10;;;;;;;45.70;23.50;;;;;;;6.72;75.41;101387.33;126588;1310;108771;-82
2021/11/16 03:16:18;;;;;;;41.70;22.30;;;;;;;6.68;75.67;101382.59;126448;1311;107404;-81
2021/11/16 03:19:25;;;;;;;46.80;25.80;;;;;;;6.68;75.53;101376.75;126466;1316;108429;-80
2021/11/16 03:22:42;;;;;;;47.50;25.20;;;;;;;6.70;75.64;101374.87;126406;1313;108804;-81
2021/11/16 03:25:51;;;;;;;47.40;26.80;;;;;;;6.74;75.64;101375.16;126508;1312;108510;-82
2021/11/16 03:29:00;;;;;;;50.50;26.80;;;;;;;6.76;75.44;101379.27;126355;1313;106908;-81
2021/11/16 03:32:09;;;;;;;49.00;27.70;;;;;;;6.76;75.57;101380.87;126773;1309;108767;-82
2021/11/16 03:35:15;;;;;;;49.10;27.50;;;;;;;6.74;75.52;101377.09;126847;1309;108391;-80
2021/11/16 03:38:22;;;;;;;46.00;24.40;;;;;;;6.72;75.25;101373.52;126924;1310;108893;-80
2021/11/16 03:41:27;;;;;;;50.80;24.70;;;;;;;6.69;75.39;101376.16;126697;1309;108731;-80
2021/11/16 03:44:33;;;;;;;50.10;26.80;;;;;;;6.67;75.56;101375.77;126677;1310;108718;-81
2021/11/16 03:47:39;;;;;;;49.00;26.90;;;;;;;6.69;75.50;101382.91;126465;1310;108929;-80
2021/11/16 03:50:45;;;;;;;43.80;24.60;;;;;;;6.74;75.53;101381.58;126759;1313;108947;-83
2021/11/16 03:53:51;;;;;;;50.80;27.60;;;;;;;6.76;75.48;101385.96;127035;1310;109565;-81
2021/11/16 03:57:00;;;;;;;48.70;26.50;;;;;;;6.74;75.28;101382.97;127014;1309;108776;-82
2021/11/16 04:00:10;;;;;;;47.20;26.50;;;;;;;6.70;75.37;101386.21;126625;1310;107340;-81
2021/11/16 04:03:16;;;;;;;44.00;23.00;;;;;;;6.67;75.44;101386.58;126743;1310;108773;-81
2021/11/16 04:06:23;;;;;;;43.90;23.70;;;;;;;6.65;75.40;101388.79;126639;1316;108913;-82
2021/11/16 04:09:28;;;;;;;48.40;25.10;;;;;;;6.66;75.68;101385.72;127044;1310;107727;-80
2021/11/16 04:12:33;;;;;;;49.20;27.20;;;;;;;6.70;75.76;101380.15;126844;1309;108740;-82
2021/11/16 04:15:40;;;;;;;48.30;25.40;;;;;;;6.75;75.64;101367.50;126969;1309;108909;-81
2021/11/16 04:18:46;;;;;;;47.00;26.50;;;;;;;6.77;75.37;101365.08;126818;1309;108751;-82
2021/11/16 04:21:52;;;;;;;45.30;25.50;;;;;;;6.75;75.51;101362.35;127026;1314;108758;-81
2021/11/16 04:24:58;;;;;;;49.10;26.70;;;;;;;6.77;75.57;101366.69;126690;1310;108920;-82
2021/11/16 04:28:05;;;;;;;44.30;23.80;;;;;;;6.73;75.34;101364.92;126664;1309;109717;-81
2021/11/16 04:31:10;;;;;;;44.20;22.70;;;;;;;6.71;75.75;101367.04;126483;1310;108863;-77
2021/11/16 04:34:16;;;;;;;46.50;24.80;;;;;;;6.68;75.62;101374.84;126635;1310;108875;-80
2021/11/16 04:37:22;;;;;;;46.30;24.20;;;;;;;6.72;75.55;101371.60;126644;1309;108904;-79
2021/11/16 04:40:32;;;;;;;49.20;26.60;;;;;;;6.74;75.88;101367.04;126502;1309;109145;-81
2021/11/16 04:43:38;;;;;;;50.20;26.10;;;;;;;6.76;75.50;101375.55;126498;1310;108387;-80
2021/11/16 04:46:44;;;;;;;46.10;25.70;;;;;;;6.75;75.54;101369.81;126427;1313;108749;-82
2021/11/16 04:49:54;;;;;;;51.20;26.10;;;;;;;6.72;75.73;101376.50;126548;1310;108413;-83
2021/11/16 04:53:14;;;;;;;46.60;24.90;;;;;;;6.70;75.54;101378.42;126808;1310;108759;-83
2021/11/16 04:59:50;;;;;;;47.20;24.10;;;;;;;6.68;75.52;101385.81;127009;1310;108754;-83
2021/11/16 05:02:56;;;;;;;47.50;25.40;;;;;;;6.70;75.75;101387.10;126995;1310;107703;-84
2021/11/16 05:06:01;;;;;;;46.20;25.80;;;;;;;6.73;75.83;101390.63;127547;1309;108930;-83
2021/11/16 05:09:07;;;;;;;50.20;26.00;;;;;;;6.75;75.74;101387.30;127369;1310;108898;-84
2021/11/16 05:12:12;;;;;;;45.20;24.70;;;;;;;6.75;75.64;101385.52;127141;1310;108846;-84
2021/11/16 05:15:20;;;;;;;49.60;26.40;;;;;;;6.74;75.61;101387.52;127087;1310;108834;-84
2021/11/16 05:18:25;;;;;;;50.30;24.10;;;;;;;6.74;75.79;101386.82;127011;1316;107802;-85
2021/11/16 05:21:31;;;;;;;47.50;24.00;;;;;;;6.75;75.69;101386.96;127112;1313;108714;-82
2021/11/16 05:24:36;;;;;;;51.90;26.50;;;;;;;6.77;75.74;101382.74;127415;1309;108786;-82
2021/11/16 05:27:42;;;;;;;49.30;26.10;;;;;;;6.81;75.83;101386.56;126993;1310;108532;-82
2021/11/16 05:30:48;;;;;;;50.20;27.30;;;;;;;6.85;75.65;101386.42;126972;1310;108857;-85
2021/11/16 05:33:55;;;;;;;54.20;26.40;;;;;;;6.90;75.89;101388.28;126829;1310;108888;-87
2021/11/16 05:37:01;;;;;;;49.60;26.90;;;;;;;6.91;75.78;101392.43;126673;1311;108768;-84
2021/11/16 05:40:08;;;;;;;51.30;27.90;;;;;;;6.93;75.51;101390.90;126696;1310;106733;-86
2021/11/16 05:43:13;;;;;;;45.30;26.30;;;;;;;6.91;75.57;101389.95;126685;1310;108783;-84
2021/11/16 05:46:21;;;;;;;52.70;24.50;;;;;;;6.90;75.73;101388.63;126769;1310;108989;-79
2021/11/16 05:49:31;;;;;;;49.20;24.30;;;;;;;6.89;75.52;101389.02;126807;1310;108699;-85
2021/11/16 05:52:37;;;;;;;48.60;25.20;;;;;;;6.87;75.70;101395.84;126696;1310;108765;-82
2021/11/16 05:55:43;;;;;;;54.50;28.50;;;;;;;6.90;75.59;101393.57;126561;1310;108871;-82
2021/11/16 05:58:52;;;;;;;53.40;28.70;;;;;;;6.94;75.60;101397.16;126606;1310;107561;-82
2021/11/16 06:01:57;;;;;;;53.60;28.90;;;;;;;6.98;75.49;101398.50;126843;1310;108824;-84
2021/11/16 06:05:03;;;;;;;55.20;30.80;;;;;;;6.99;75.39;101400.92;126886;1310;108923;-81
2021/11/16 06:08:09;;;;;;;53.40;28.30;;;;;;;6.95;75.57;101404.15;126915;1310;108715;-81
2021/11/16 06:11:14;;;;;;;55.80;28.70;;;;;;;6.95;75.71;101401.73;126566;1310;108734;-81
2021/11/16 06:14:19;;;;;;;50.80;25.70;;;;;;;6.95;75.79;101402.03;126451;1307;246620;-82
2021/11/16 06:17:25;;;;;;;52.50;26.30;;;;;;;6.96;75.69;101402.36;126797;1310;108889;-80
2021/11/16 06:20:33;;;;;;;53.70;28.70;;;;;;;6.99;75.76;101404.15;126612;1310;108857;-83
2021/11/16 06:23:39;;;;;;;56.30;30.30;;;;;;;7.04;75.68;101404.49;126560;1310;109797;-84
2021/11/16 06:26:44;;;;;;;57.90;29.40;;;;;;;7.08;75.55;101406.34;126742;1310;108705;-82
2021/11/16 06:29:50;;;;;;;52.80;28.50;;;;;;;7.12;75.42;101402.89;126795;1310;108954;-84
2021/11/16 06:32:55;;;;;;;54.10;28.60;;;;;;;7.15;75.40;101402.73;126952;1310;108950;-80
2021/11/16 06:36:01;;;;;;;55.60;29.20;;;;;;;7.15;75.78;101402.02;126993;1310;108787;-81
2021/11/16 06:39:09;;;;;;;54.00;28.90;;;;;;;7.14;75.47;101401.01;126932;1309;108814;-80
2021/11/16 06:42:14;;;;;;;48.50;25.30;;;;;;;7.08;75.42;101404.37;126931;1310;108076;-79
2021/11/16 06:45:20;;;;;;;48.80;25.70;;;;;;;7.07;75.57;101401.80;126817;1310;108505;-85
2021/11/16 06:48:26;;;;;;;48.90;26.20;;;;;;;7.05;75.54;101402.82;126894;1313;108919;-85
2021/11/16 06:51:37;;;;;;;46.10;25.80;;;;;;;7.10;75.65;101402.48;126628;1310;108757;-84
2021/11/16 06:54:42;;;;;;;44.90;25.90;;;;;;;7.16;75.61;101404.38;126988;1310;108909;-84
2021/11/16 06:57:48;;;;;;;47.00;26.70;;;;;;;7.19;75.53;101398.17;127029;1310;108842;-77
2021/11/16 07:00:55;;;;;;;46.30;26.30;;;;;;;7.21;75.57;101397.88;126844;1310;108700;-78
2021/11/16 07:04:05;;;;;;;46.60;27.20;;;;;;;7.24;75.63;101402.98;127265;1309;108847;-83
2021/11/16 07:07:10;;;;;;;46.10;26.20;;;;;;;7.23;75.41;101401.30;127033;1309;108781;-80
2021/11/16 07:10:20;;;;;;;44.50;24.30;;;;;;;7.23;75.50;101406.44;126994;1310;108703;-82
2021/11/16 07:13:26;;;;;;;45.00;24.80;;;;;;;7.25;75.52;101402.89;126964;1310;108914;-77
2021/11/16 07:16:34;;;;;;;45.10;25.10;;;;;;;7.28;75.43;101395.95;126659;1310;108855;-82
2021/11/16 07:19:42;;;;;;;50.10;27.70;;;;;;;7.33;75.51;101390.54;127047;1309;108746;-82
2021/11/16 07:22:47;;;;;;;48.40;26.50;;;;;;;7.37;75.43;101386.70;127084;1310;108653;-82
2021/11/16 07:25:53;;;;;;;53.90;27.20;;;;;;;7.40;75.34;101383.11;127019;1310;108913;-79
2021/11/16 07:28:58;;;;;;;67.60;31.70;;;;;;;7.43;75.38;101382.59;126679;1310;108820;-82
2021/11/16 07:32:05;;;;;;;54.20;30.40;;;;;;;7.43;75.55;101376.52;126621;1310;108750;-81
2021/11/16 07:35:15;;;;;;;53.60;28.90;;;;;;;7.42;75.27;101370.95;126842;1310;108825;-77
2021/11/16 07:38:23;;;;;;;48.90;25.80;;;;;;;7.40;75.31;101368.25;126653;1310;108747;-80
2021/11/16 07:41:29;;;;;;;45.50;24.30;;;;;;;7.38;75.51;101360.98;126843;1309;106975;-80
2021/11/16 07:44:37;;;;;;;46.00;24.50;;;;;;;7.39;75.32;101362.52;126886;1310;108733;-81
2021/11/16 07:47:47;;;;;;;53.80;29.20;;;;;;;7.43;75.39;101362.02;126944;1309;108776;-75
2021/11/16 07:50:55;;;;;;;46.40;27.60;;;;;;;7.50;75.33;101363.86;127125;1309;108744;-80
2021/11/16 07:54:01;;;;;;;50.60;28.30;;;;;;;7.57;74.94;101364.96;127176;1310;108719;-80
2021/11/16 07:57:08;;;;;;;101.20;49.60;;;;;;;7.61;75.05;101366.63;127045;1310;108700;-80
2021/11/16 08:00:22;;;;;;;430.40;383.80;;;;;;;7.63;75.05;101367.91;126779;1310;108213;-79
2021/11/16 08:03:28;;;;;;;278.40;246.50;;;;;;;7.62;75.03;101368.52;126708;1310;109725;-78
2021/11/16 08:06:39;;;;;;;81.90;57.60;;;;;;;7.61;75.02;101367.56;126797;1313;108564;-77
2021/11/16 08:09:49;;;;;;;66.30;48.00;;;;;;;7.60;75.07;101361.55;127144;1310;107230;-79
2021/11/16 08:13:05;;;;;;;76.40;42.60;;;;;;;7.62;74.79;101357.54;126858;1310;108699;-83
2021/11/16 08:16:13;;;;;;;127.60;68.30;;;;;;;7.69;74.86;101355.46;126738;1310;108899;-76
2021/11/16 08:19:21;;;;;;;104.90;51.70;;;;;;;7.77;75.22;101346.57;126694;1313;107305;-80
2021/11/16 08:22:27;;;;;;;128.20;68.30;;;;;;;7.85;74.93;101338.25;126790;1310;108810;-84
2021/11/16 08:25:33;;;;;;;76.10;42.80;;;;;;;7.93;75.19;101330.80;126982;1310;106851;-78
2021/11/16 08:28:39;;;;;;;92.20;61.00;;;;;;;7.98;74.91;101330.74;126893;1310;107630;-80
2021/11/16 08:31:50;;;;;;;67.90;39.10;;;;;;;8.01;74.85;101332.59;126731;1314;108608;-84
2021/11/16 08:34:57;;;;;;;58.40;29.80;;;;;;;8.05;74.80;101329.91;126864;1310;109635;-83
2021/11/16 08:38:03;;;;;;;51.00;27.20;;;;;;;8.05;74.79;101325.66;126997;1310;108769;-81
2021/11/16 08:41:22;;;;;;;60.70;30.30;;;;;;;8.10;74.94;101323.89;126734;1310;108872;-83
2021/11/16 08:44:34;;;;;;;59.70;33.80;;;;;;;8.15;74.80;101329.36;126877;1313;109048;-78
2021/11/16 08:47:42;;;;;;;51.30;28.60;;;;;;;8.21;74.84;101323.95;126738;1310;108991;-85
2021/11/16 08:50:50;;;;;;;59.10;29.40;;;;;;;8.27;74.41;101322.30;126751;1310;108741;-84
2021/11/16 08:53:56;;;;;;;50.60;29.30;;;;;;;8.27;74.60;101313.73;126929;1309;108967;-82
2021/11/16 08:57:02;;;;;;;56.40;30.50;;;;;;;8.28;74.69;101312.48;127190;1315;108619;-82
2021/11/16 09:00:20;;;;;;;56.10;29.80;;;;;;;8.31;74.50;101315.81;126970;1310;108965;-82
2021/11/16 09:03:29;;;;;;;47.50;25.90;;;;;;;8.30;74.61;101316.25;127023;1310;109496;-84
2021/11/16 09:06:40;;;;;;;49.40;24.50;;;;;;;8.34;74.55;101315.20;126561;1316;108774;-83
2021/11/16 09:09:55;;;;;;;52.20;27.40;;;;;;;8.38;74.47;101317.05;127040;1312;108992;-83
2021/11/16 09:13:04;;;;;;;45.80;25.60;;;;;;;8.44;74.36;101320.52;126745;1313;108865;-80
2021/11/16 09:16:14;;;;;;;47.40;26.10;;;;;;;8.47;74.03;101324.05;126561;1310;108805;-85
2021/11/16 09:19:28;;;;;;;45.10;24.90;;;;;;;8.43;74.09;101324.34;126588;1310;108726;-81
2021/11/16 09:22:38;;;;;;;47.50;26.40;;;;;;;8.43;74.20;101316.52;126341;1311;108752;-82
2021/11/16 09:25:44;;;;;;;92.50;45.70;;;;;;;8.45;74.13;101314.81;126483;1312;108847;-81
2021/11/16 09:28:53;;;;;;;46.30;25.50;;;;;;;8.45;74.11;101315.48;126926;1310;108893;-81
2021/11/16 09:32:01;;;;;;;43.60;22.50;;;;;;;8.43;74.07;101310.85;127751;1310;106795;-83
2021/11/16 09:35:08;;;;;;;43.00;21.80;;;;;;;8.44;74.10;101307.19;126700;1310;107934;-82
2021/11/16 09:38:14;;;;;;;45.10;25.50;;;;;;;8.46;74.07;101302.84;126776;1310;109000;-80
2021/11/16 09:41:32;;;;;;;61.60;32.40;;;;;;;8.52;74.09;101306.63;126962;1313;109209;-83
2021/11/16 09:44:42;;;;;;;44.60;24.20;;;;;;;8.59;73.89;101309.34;126741;1310;108694;-82
2021/11/16 09:47:48;;;;;;;41.70;24.20;;;;;;;8.64;74.09;101310.71;126677;1310;108878;-86
2021/11/16 09:50:54;;;;;;;50.10;27.50;;;;;;;8.68;73.79;101317.67;126812;1310;108686;-82
2021/11/16 09:54:06;;;;;;;45.50;25.90;;;;;;;8.69;73.62;101311.98;127022;1310;108985;-83
2021/11/16 09:57:13;;;;;;;;;;;;;;;8.66;73.65;101306.99;127029;1310;108693;-82
2021/11/16 10:00:25;;;;;;;44.30;24.20;;;;;;;8.62;73.58;101303.40;127068;1310;108822;-84
2021/11/16 10:03:31;;;;;;;44.30;22.70;;;;;;;8.58;73.74;101305.30;126757;1310;108727;-83
2021/11/16 10:06:37;;;;;;;46.60;23.30;;;;;;;8.58;73.76;101304.61;126804;1310;108737;-86
2021/11/16 10:09:44;;;;;;;50.30;26.50;;;;;;;8.60;73.74;101300.86;126907;1310;108871;-90
2021/11/16 10:12:53;;;;;;;48.30;27.70;;;;;;;8.68;73.90;101299.79;127169;1309;108770;-81
2021/11/16 10:16:02;;;;;;;45.10;25.30;;;;;;;8.76;73.56;101296.00;127103;1310;109017;-83
2021/11/16 10:19:09;;;;;;;47.20;26.10;;;;;;;8.77;73.55;101289.75;127004;1313;108821;-81
2021/11/16 10:22:15;;;;;;;45.10;24.20;;;;;;;8.82;73.59;101283.85;126932;1310;108956;-86
2021/11/16 10:25:23;;;;;;;72.20;39.60;;;;;;;8.85;73.61;101279.51;127325;1313;108893;-85
2021/11/16 10:28:33;;;;;;;51.00;28.40;;;;;;;8.86;73.46;101276.61;126747;1316;108915;-85
2021/11/16 10:31:38;;;;;;;49.30;27.30;;;;;;;8.84;73.52;101275.15;126993;1310;108144;-83
2021/11/16 10:34:45;;;;;;;40.70;22.50;;;;;;;8.85;73.48;101266.78;126818;1313;108789;-85
2021/11/16 10:37:53;;;;;;;41.90;23.00;;;;;;;8.83;73.61;101264.23;126908;1310;108882;-81
2021/11/16 10:41:01;;;;;;;47.80;25.10;;;;;;;8.86;73.57;101261.39;126928;1310;108872;-82
2021/11/16 12:40:40;;;;;;;55.50;31.50;;;;;;;8.99;73.74;101147.16;125876;1326;649505;-85
2021/11/16 12:43:47;;;;;;;50.10;27.80;;;;;;;9.19;73.46;101134.86;128963;1292;165012;-82
2021/11/16 12:47:03;;;;;;;49.80;26.30;;;;;;;9.26;73.52;101134.15;129161;1296;108622;-80
2021/11/16 12:50:11;;;;;;;53.70;28.60;;;;;;;9.36;73.35;101131.92;129115;1295;108645;-83
2021/11/16 12:53:14;;;;;;;52.80;28.50;;;;;;;9.45;73.33;101126.45;129197;1296;108740;-81
2021/11/16 12:56:17;;;;;;;54.70;28.80;;;;;;;9.52;73.17;101124.48;129193;1296;94362;-81
2021/11/16 12:59:22;;;;;;;52.50;29.20;;;;;;;9.56;73.00;101117.90;129692;1290;107199;-81
2021/11/16 13:02:29;;;;;;;54.70;29.90;;;;;;;9.56;72.99;101120.36;129598;1288;108641;-81
2021/11/16 13:05:35;;;;;;;56.80;30.20;;;;;;;9.51;72.88;101120.10;129574;1288;107597;-80
2021/11/16 13:08:38;;;;;;;54.50;28.90;;;;;;;9.47;72.95;101114.00;129560;1289;108742;-80
2021/11/16 13:11:44;;;;;;;56.50;30.50;;;;;;;9.44;73.11;101115.14;129611;1289;95725;-81
2021/11/16 13:14:47;;;;;;;54.30;28.00;;;;;;;9.41;73.03;101116.41;129559;1290;108743;-82
2021/11/16 13:17:52;;;;;;;49.90;25.50;;;;;;;9.38;73.10;101110.08;129773;1287;95965;-80
2021/11/16 13:20:58;;;;;;;49.70;27.20;;;;;;;9.38;72.94;101105.11;129979;1287;109574;-81
2021/11/16 13:24:03;;;;;;;49.60;27.70;;;;;;;9.40;73.04;101102.86;129630;1290;108606;-80
2021/11/16 13:27:06;;;;;;;51.00;27.50;;;;;;;9.42;72.90;101098.08;129816;1290;108642;-80
2021/11/16 13:30:24;;;;;;;52.50;28.10;;;;;;;9.43;72.74;101096.16;129961;1290;109086;-80
2021/11/16 13:33:48;;;;;;;53.70;27.80;;;;;;;9.42;72.74;101093.84;129659;1290;107589;-80
2021/11/16 13:36:54;;;;;;;54.30;29.80;;;;;;;9.36;72.76;101095.67;129485;1287;108711;-81
2021/11/16 13:40:13;;;;;;;56.00;31.40;;;;;;;9.29;72.74;101096.60;129537;1289;108853;-80
2021/11/16 13:43:20;;;;;;;56.70;31.50;;;;;;;9.24;72.74;101095.29;129525;1290;108763;-77
2021/11/16 13:46:23;;;;;;;59.20;29.70;;;;;;;9.17;72.84;101101.01;129452;1287;108669;-80
2021/11/16 13:49:30;;;;;;;49.50;25.30;;;;;;;9.13;72.81;101096.13;129842;1290;109263;-79
2021/11/16 13:52:35;;;;;;;51.10;28.10;;;;;;;9.09;72.76;101091.52;129609;1288;107503;-79
2021/11/16 13:55:41;;;;;;;57.30;32.60;;;;;;;9.08;72.79;101093.92;129541;1290;107789;-79
2021/11/16 13:58:44;;;;;;;54.10;31.00;;;;;;;9.06;72.75;101092.63;129820;1290;108596;-80
2021/11/16 14:01:47;;;;;;;50.50;28.30;;;;;;;9.05;72.77;101094.46;129763;1290;96136;-79
2021/11/16 14:04:57;;;;;;;153.60;87.20;;;;;;;9.05;72.81;101092.00;129946;1290;107088;-78
2021/11/16 14:08:02;;;;;;;122.90;67.80;;;;;;;9.02;72.71;101091.86;130083;1287;108577;-80
2021/11/16 14:11:07;;;;;;;76.00;40.70;;;;;;;8.98;72.75;101091.27;130074;1290;108118;-80
2021/11/16 14:14:15;;;;;;;71.10;39.30;;;;;;;8.90;72.68;101094.23;129943;1290;108566;-84
2021/11/16 14:17:18;;;;;;;127.70;69.10;;;;;;;8.84;72.71;101097.73;129774;1290;108604;-82
2021/11/16 14:20:20;;;;;;;68.80;38.10;;;;;;;8.81;72.79;101095.44;129606;1290;96116;-82
2021/11/16 14:23:27;;;;;;;61.40;33.70;;;;;;;8.79;72.84;101096.52;129822;1289;95286;-81
2021/11/16 14:26:32;;;;;;;60.10;32.90;;;;;;;8.77;72.95;101095.80;129607;1290;108764;-82
2021/11/16 14:29:35;;;;;;;62.80;37.10;;;;;;;8.75;72.69;101092.23;129731;1288;108901;-83
2021/11/16 14:32:37;;;;;;;62.90;33.30;;;;;;;8.74;72.79;101090.75;129681;1290;96098;-81
2021/11/16 14:35:42;;;;;;;56.40;29.90;;;;;;;8.72;72.87;101090.72;129604;1290;95330;-82
2021/11/16 14:38:47;;;;;;;88.20;39.60;;;;;;;8.67;72.61;101086.50;129794;1290;108593;-81
2021/11/16 14:41:52;;;;;;;74.70;35.10;;;;;;;8.61;72.69;101084.04;129535;1289;108037;-81
2021/11/16 14:44:55;;;;;;;62.70;34.50;;;;;;;8.57;72.82;101074.85;129740;1290;108629;-81
2021/11/16 14:48:03;;;;;;;67.00;32.70;;;;;;;8.50;72.92;101071.27;129570;1288;108695;-82
2021/11/16 14:51:19;;;;;;;68.40;31.80;;;;;;;8.47;72.87;101069.59;129827;1290;108697;-82
2021/11/16 14:54:25;;;;;;;113.40;52.90;;;;;;;8.46;72.99;101067.70;129650;1290;108889;-82
2021/11/16 14:57:33;;;;;;;77.10;37.20;;;;;;;8.47;73.02;101072.75;129720;1290;107466;-82
2021/11/16 15:00:40;;;;;;;73.30;36.10;;;;;;;8.47;72.98;101072.98;129659;1289;108859;-82
2021/11/16 15:03:43;;;;;;;64.50;33.40;;;;;;;8.48;72.85;101068.63;129580;1290;108600;-82
2021/11/16 15:06:46;;;;;;;54.10;29.00;;;;;;;8.49;73.08;101063.23;129725;1290;108645;-82
2021/11/16 15:09:56;;;;;;;53.60;30.80;;;;;;;8.49;72.77;101062.55;129887;1290;95314;-82
2021/11/16 15:13:00;;;;;;;65.10;34.30;;;;;;;8.44;72.97;101061.86;130038;1290;108025;-82
2021/11/16 15:16:12;;;;;;;63.80;31.40;;;;;;;8.40;73.04;101060.55;129859;1289;108526;-83
2021/11/16 15:19:18;;;;;;;59.20;29.50;;;;;;;8.36;72.85;101059.99;129968;1290;108608;-83
2021/11/16 15:22:30;;;;;;;53.90;29.10;;;;;;;8.35;73.02;101067.27;129950;1287;107697;-80
2021/11/16 15:25:34;;;;;;;57.20;31.50;;;;;;;8.36;73.14;101059.04;129948;1289;108682;-82
2021/11/16 15:28:39;;;;;;;53.20;28.50;;;;;;;8.40;72.84;101052.76;129952;1290;108625;-81
2021/11/16 15:31:45;;;;;;;54.70;31.70;;;;;;;8.40;72.98;101051.09;130068;1290;108582;-80
2021/11/16 15:34:49;;;;;;;71.40;38.60;;;;;;;8.37;72.90;101055.27;130075;1290;108023;-80
2021/11/16 15:37:55;;;;;;;74.90;40.20;;;;;;;8.33;72.90;101053.80;130052;1290;108616;-80
2021/11/16 15:41:02;;;;;;;65.00;33.10;;;;;;;8.30;73.01;101048.88;129904;1290;107404;-82
2021/11/16 15:44:14;;;;;;;75.50;35.90;;;;;;;8.27;72.91;101047.36;129981;1290;106883;-82
2021/11/16 15:47:34;;;;;;;;;;;;;;;8.22;73.08;101046.08;129970;1290;109265;-82
2021/11/16 15:50:53;;;;;;;53.40;27.00;;;;;;;8.24;73.26;101044.22;129813;1290;108688;-82
2021/11/16 15:57:26;;;;;;;50.40;27.50;;;;;;;8.29;72.98;101042.92;129762;1289;108666;-77
2021/11/16 16:00:29;;;;;;;47.90;27.10;;;;;;;8.29;73.00;101039.40;129443;1290;108796;-80
2021/11/16 16:03:35;;;;;;;56.60;28.70;;;;;;;8.30;72.95;101037.89;129602;1290;108616;-81